Time;durP1;ratioP1;P1;durP2;ratioP2;P2;SDS_P1;SDS_P2;PMS_P1;PMS_P2;Temp;Humidity;BMP_temperature;BMP_pressure;BME280_temperature;BME280_humidity;BME280_pressure;Samples;Min_cycle;Max_cycle;Signal;HPM_P1;HPM_P2
2023/10/26 01:42:43;;;;;;;43.50;16.60;;;;;;;11.16;100.00;98579.11;674828;1259;140146;-84
2023/10/26 01:57:47;;;;;;;59.30;17.50;;;;;;;11.28;100.00;98578.60;675721;1263;139393;-84
2023/10/26 02:12:50;;;;;;;45.10;17.80;;;;;;;11.22;100.00;98584.81;674832;1264;139619;-84
2023/10/26 02:27:53;;;;;;;22.20;8.70;;;;;;;11.20;100.00;98568.39;672344;1259;140739;-84
2023/10/26 02:42:57;;;;;;;23.00;10.40;;;;;;;11.27;100.00;98558.30;669944;1275;139626;-84
2023/10/26 02:58:00;;;;;;;29.40;12.80;;;;;;;11.25;100.00;98542.74;670567;1263;139147;-84
2023/10/26 03:13:04;;;;;;;44.70;18.60;;;;;;;11.26;100.00;98535.11;672724;1264;139389;-84
2023/10/26 03:28:11;;;;;;;44.90;19.00;;;;;;;11.27;100.00;98529.20;671851;1261;140713;-84
2023/10/26 03:43:14;;;;;;;45.50;15.80;;;;;;;11.23;100.00;98516.30;671848;1262;139906;-84
2023/10/26 03:58:18;;;;;;;46.30;16.90;;;;;;;11.19;100.00;98493.77;671712;1263;139805;-84
2023/10/26 04:13:21;;;;;;;53.40;20.90;;;;;;;11.04;100.00;98495.39;670497;1262;139959;-84
2023/10/26 04:28:25;;;;;;;29.00;11.20;;;;;;;11.01;100.00;98488.81;670904;1262;138785;-84
2023/10/26 04:43:28;;;;;;;26.60;12.10;;;;;;;11.04;100.00;98467.70;673149;1258;140109;-85
2023/10/26 04:58:32;;;;;;;44.00;23.30;;;;;;;11.00;100.00;98461.52;675281;1260;139701;-84
2023/10/26 05:13:35;;;;;;;23.40;10.80;;;;;;;11.04;100.00;98448.84;673116;1259;139595;-83
2023/10/26 05:28:39;;;;;;;23.80;11.00;;;;;;;10.94;100.00;98450.70;671012;1260;138383;-84
2023/10/26 05:43:42;;;;;;;74.40;36.00;;;;;;;10.66;100.00;98444.52;673342;1259;139364;-84
2023/10/26 05:58:47;;;;;;;62.10;29.60;;;;;;;11.15;100.00;98447.00;671954;1262;139875;-83
2023/10/26 06:13:51;;;;;;;58.90;23.70;;;;;;;11.23;100.00;98451.86;671469;1274;138503;-84
2023/10/26 06:28:56;;;;;;;94.50;42.90;;;;;;;11.31;100.00;98452.56;670174;1273;138743;-84
2023/10/26 06:43:59;;;;;;;52.80;24.00;;;;;;;11.36;100.00;98441.86;677206;1267;139126;-84
2023/10/26 06:59:03;;;;;;;36.20;14.10;;;;;;;11.40;100.00;98429.55;675841;1259;138908;-85
2023/10/26 07:14:06;;;;;;;36.40;16.50;;;;;;;11.53;100.00;98428.33;671897;1259;140182;-84
2023/10/26 07:29:09;;;;;;;47.90;19.80;;;;;;;11.69;100.00;98422.92;676294;1262;145042;-84
2023/10/26 07:44:12;;;;;;;99.60;32.60;;;;;;;11.64;100.00;98423.84;673126;1262;139290;-84
2023/10/26 07:59:15;;;;;;;38.90;15.60;;;;;;;11.68;100.00;98427.02;670206;1262;139278;-84
2023/10/26 08:14:19;;;;;;;36.80;14.60;;;;;;;11.95;100.00;98418.84;669760;1263;139914;-84
2023/10/26 08:29:43;;;;;;;176.70;64.10;;;;;;;11.86;100.00;98413.30;671304;1262;139092;-84
2023/10/26 08:44:47;;;;;;;62.60;22.40;;;;;;;12.11;100.00;98400.77;671356;1262;138979;-83
2023/10/26 08:59:51;;;;;;;33.80;15.80;;;;;;;12.16;100.00;98401.50;676230;1259;139169;-84
2023/10/26 09:15:06;;;;;;;28.60;13.90;;;;;;;12.37;100.00;98398.25;671968;1263;141421;-84
2023/10/26 09:30:30;;;;;;;37.60;18.30;;;;;;;12.48;100.00;98397.77;672960;1263;139484;-83
2023/10/26 09:45:34;;;;;;;205.90;94.80;;;;;;;12.58;100.00;98389.27;674449;1262;139229;-84
2023/10/26 10:00:38;;;;;;;45.00;21.40;;;;;;;12.58;100.00;98378.23;675993;1263;139315;-83
2023/10/26 10:15:43;;;;;;;120.50;47.30;;;;;;;12.64;100.00;98358.42;671065;1272;139794;-83
2023/10/26 10:30:47;;;;;;;75.50;28.70;;;;;;;12.72;100.00;98340.89;671561;1263;140229;-84
2023/10/26 10:45:51;;;;;;;29.30;15.20;;;;;;;13.01;100.00;98325.77;672820;1263;139413;-83
2023/10/26 11:00:55;;;;;;;26.30;12.50;;;;;;;12.95;100.00;98316.23;673759;1260;139466;-83
2023/10/26 11:15:59;;;;;;;27.30;14.70;;;;;;;12.95;100.00;98309.55;671835;1263;139440;-83
2023/10/26 11:31:02;;;;;;;24.70;13.20;;;;;;;13.09;100.00;98302.95;675624;1263;140401;-84
2023/10/26 11:46:06;;;;;;;85.10;38.70;;;;;;;13.14;100.00;98297.94;672386;1263;140512;-83
2023/10/26 12:01:10;;;;;;;34.70;18.30;;;;;;;13.20;100.00;98294.17;672968;1262;140012;-84
2023/10/26 12:16:14;;;;;;;37.50;19.30;;;;;;;13.36;100.00;98284.20;669099;1274;139283;-84
2023/10/26 12:31:17;;;;;;;42.60;23.30;;;;;;;13.46;100.00;98274.77;670821;1263;139707;-84
2023/10/26 12:46:22;;;;;;;37.10;19.70;;;;;;;13.46;100.00;98277.45;671969;1263;139366;-84
2023/10/26 13:01:29;;;;;;;219.60;95.10;;;;;;;13.45;100.00;98269.70;675079;1263;139740;-84
2023/10/26 13:16:35;;;;;;;112.70;50.40;;;;;;;13.63;100.00;98267.05;671817;1263;139301;-83
2023/10/26 13:31:58;;;;;;;67.00;34.50;;;;;;;13.69;100.00;98270.14;670204;1260;139485;-83
2023/10/26 13:47:02;;;;;;;48.40;27.60;;;;;;;13.60;100.00;98268.05;672975;1271;139389;-84
2023/10/26 14:02:06;;;;;;;110.50;50.60;;;;;;;13.41;100.00;98271.28;671285;1268;139970;-84
2023/10/26 14:17:10;;;;;;;57.00;31.50;;;;;;;13.21;100.00;98268.09;671136;1263;139603;-84
2023/10/26 14:32:18;;;;;;;44.60;24.50;;;;;;;13.09;100.00;98272.37;672402;1263;142312;-86
2023/10/26 14:47:24;;;;;;;59.70;33.20;;;;;;;12.96;100.00;98283.23;670662;1263;139553;-85
2023/10/26 15:02:27;;;;;;;68.30;37.30;;;;;;;12.80;100.00;98275.31;670274;1262;140009;-83
2023/10/26 15:17:31;;;;;;;116.00;55.30;;;;;;;12.63;100.00;98279.75;671771;1273;139667;-85
2023/10/26 15:32:35;;;;;;;74.90;41.50;;;;;;;12.71;100.00;98284.80;670060;1264;139932;-84
2023/10/26 15:47:38;;;;;;;73.00;31.90;;;;;;;12.66;100.00;98285.20;682660;1263;140874;-83
2023/10/26 16:02:45;;;;;;;218.10;85.30;;;;;;;12.69;100.00;98295.64;682520;1261;139622;-83
2023/10/26 16:17:48;;;;;;;72.40;37.70;;;;;;;12.49;100.00;98302.89;682529;1263;140143;-83
2023/10/26 16:32:52;;;;;;;308.80;149.90;;;;;;;12.46;100.00;98299.39;682292;1260;139740;-85
2023/10/26 16:47:56;;;;;;;73.40;41.40;;;;;;;12.38;100.00;98291.35;682849;1260;139765;-85
2023/10/26 17:03:02;;;;;;;97.40;52.10;;;;;;;12.33;100.00;98289.59;682142;1260;139456;-85
2023/10/26 17:18:07;;;;;;;101.00;48.30;;;;;;;12.32;100.00;98292.61;682490;1262;139320;-83
2023/10/26 17:33:13;;;;;;;34.40;18.20;;;;;;;12.28;100.00;98282.85;682348;1263;139635;-82
2023/10/26 17:48:16;;;;;;;83.00;34.40;;;;;;;12.24;100.00;98271.59;682449;1261;139606;-83
2023/10/26 18:03:20;;;;;;;51.70;23.60;;;;;;;12.20;100.00;98267.08;682439;1259;139151;-82
2023/10/26 18:18:24;;;;;;;31.00;16.70;;;;;;;12.22;100.00;98260.73;682347;1262;139825;-84
2023/10/26 18:33:28;;;;;;;39.40;21.00;;;;;;;12.11;100.00;98262.21;682479;1263;139821;-84
2023/10/26 18:48:34;;;;;;;82.40;40.60;;;;;;;12.23;100.00;98272.06;682089;1262;138869;-82
2023/10/26 19:03:37;;;;;;;91.90;41.10;;;;;;;12.30;100.00;98284.11;682433;1262;139351;-82
2023/10/26 19:18:55;;;;;;;172.50;70.30;;;;;;;12.30;100.00;98285.05;682337;1259;139028;-84
2023/10/26 19:34:02;;;;;;;58.90;28.20;;;;;;;12.23;100.00;98284.89;682304;1259;162238;-83
2023/10/26 19:49:06;;;;;;;80.40;37.50;;;;;;;12.17;100.00;98281.77;681988;1262;139296;-84
2023/10/26 20:04:10;;;;;;;53.80;26.30;;;;;;;11.94;100.00;98282.88;682159;1259;138922;-83
2023/10/26 20:19:14;;;;;;;59.60;27.00;;;;;;;11.94;100.00;98290.36;682234;1262;139865;-83
2023/10/26 20:34:17;;;;;;;46.50;25.20;;;;;;;12.06;100.00;98286.36;682318;1262;139248;-84
2023/10/26 20:49:21;;;;;;;48.10;22.70;;;;;;;11.88;100.00;98271.69;682178;1259;139518;-83
2023/10/26 21:04:29;;;;;;;46.00;23.70;;;;;;;11.87;100.00;98269.58;682459;1262;140813;-83
2023/10/26 21:19:51;;;;;;;38.00;19.70;;;;;;;11.92;100.00;98269.41;682333;1259;139388;-82
2023/10/26 21:34:54;;;;;;;32.30;15.30;;;;;;;11.89;100.00;98265.10;681977;1263;139726;-83
2023/10/26 21:49:58;;;;;;;99.40;39.30;;;;;;;11.91;100.00;98260.02;682110;1262;139095;-82
2023/10/26 22:05:01;;;;;;;42.50;19.60;;;;;;;11.92;100.00;98263.30;682271;1262;139139;-85
2023/10/26 22:20:08;;;;;;;34.30;17.60;;;;;;;11.91;100.00;98263.25;682248;1262;140246;-81
2023/10/26 22:35:11;;;;;;;38.50;18.60;;;;;;;11.88;100.00;98260.28;682122;1262;138795;-81
2023/10/26 22:50:14;;;;;;;37.20;17.40;;;;;;;11.87;100.00;98263.60;682603;1259;140807;-84
2023/10/26 23:05:18;;;;;;;33.50;15.40;;;;;;;11.83;100.00;98267.01;682631;1262;139945;-82
2023/10/26 23:20:22;;;;;;;35.10;16.20;;;;;;;11.78;100.00;98273.07;682421;1261;139643;-83
2023/10/26 23:35:27;;;;;;;35.70;15.50;;;;;;;11.77;100.00;98274.48;682326;1262;139742;-82
2023/10/26 23:50:31;;;;;;;28.00;13.10;;;;;;;11.81;100.00;98270.55;682443;1259;139129;-84
